Time;durP1;ratioP1;P1;durP2;ratioP2;P2;SDS_P1;SDS_P2;PMS_P1;PMS_P2;Temp;Humidity;BMP_temperature;BMP_pressure;BME280_temperature;BME280_humidity;BME280_pressure;Samples;Min_cycle;Max_cycle;Signal;HPM_P1;HPM_P2
2023/01/08 00:00:22;;;;;;;;;;;;;;;4.52;71.23;100354.00;5092349;28;20003;-42
2023/01/08 00:02:48;;;;;;;;;;;;;;;4.43;71.66;100356.53;5091854;28;20217;-42
2023/01/08 00:05:14;;;;;;;;;;;;;;;4.50;71.45;100356.78;5091963;28;20364;-42
2023/01/08 00:07:39;;;;;;;;;;;;;;;4.67;70.53;100352.50;5092614;28;19934;-42
2023/01/08 00:10:04;;;;;;;;;;;;;;;4.52;71.38;100354.00;5092314;28;20037;-42
2023/01/08 00:12:30;;;;;;;;;;;;;;;4.58;71.61;100359.50;5092234;28;20452;-42
2023/01/08 00:14:55;;;;;;;;;;;;;;;4.47;70.87;100360.56;5092405;28;19912;-42
2023/01/08 00:17:20;;;;;;;;;;;;;;;4.58;70.75;100358.66;5092077;28;19972;-42
2023/01/08 00:19:45;;;;;;;;;;;;;;;4.43;70.84;100355.72;5091663;28;19939;-42
2023/01/08 00:22:11;;;;;;;;;;;;;;;4.33;71.56;100362.84;5091831;28;19912;-42
2023/01/08 00:24:36;;;;;;;;;;;;;;;4.35;71.58;100360.91;5091760;28;19938;-42
2023/01/08 00:27:01;;;;;;;;;;;;;;;4.33;72.32;100352.31;5092261;28;19939;-42
2023/01/08 00:29:27;;;;;;;;;;;;;;;4.30;72.01;100356.06;5091806;28;19919;-42
2023/01/08 00:31:52;;;;;;;;;;;;;;;4.07;72.63;100353.84;5091898;28;19986;-44
2023/01/08 00:34:17;;;;;;;;;;;;;;;4.16;72.75;100351.31;5091837;28;19973;-42
2023/01/08 00:36:43;;;;;;;;;;;;;;;4.08;72.40;100359.94;5091851;28;19935;-43
2023/01/08 00:39:08;;;;;;;;;;;;;;;4.06;73.13;100359.25;5091443;28;19977;-42
2023/01/08 00:41:33;;;;;;;;;;;;;;;4.00;72.83;100359.81;5091097;28;20002;-42
2023/01/08 00:43:58;;;;;;;;;;;;;;;4.09;72.18;100356.31;5091742;28;20429;-43
2023/01/08 00:46:24;;;;;;;;;;;;;;;4.05;72.33;100357.59;5091697;28;19978;-43
2023/01/08 00:48:49;;;;;;;;;;;;;;;4.14;72.52;100353.25;5091826;28;19939;-43
2023/01/08 00:51:14;;;;;;;;;;;;;;;4.06;72.96;100360.06;5091573;28;19974;-43
2023/01/08 00:53:39;;;;;;;;;;;;;;;4.00;73.18;100365.09;5091298;28;19913;-42
2023/01/08 00:56:06;;;;;;;;;;;;;;;4.15;72.58;100360.16;5091145;28;20354;-43
2023/01/08 00:58:32;;;;;;;;;;;;;;;4.05;73.06;100368.13;5091161;28;19912;-42
2023/01/08 01:00:57;;;;;;;;;;;;;;;3.86;73.28;100371.66;5090625;28;19916;-43
2023/01/08 01:03:23;;;;;;;;;;;;;;;3.98;73.28;100374.94;5090999;28;20010;-43
2023/01/08 01:05:48;;;;;;;;;;;;;;;3.94;73.19;100360.41;5091134;28;20003;-42
2023/01/08 01:08:14;;;;;;;;;;;;;;;3.96;73.58;100354.03;5090740;28;19912;-42
2023/01/08 01:10:39;;;;;;;;;;;;;;;4.00;73.16;100350.13;5091356;28;19912;-41
2023/01/08 01:13:05;;;;;;;;;;;;;;;4.16;72.28;100357.38;5091178;28;19916;-42
2023/01/08 01:15:30;;;;;;;;;;;;;;;3.98;71.99;100352.09;5090951;28;19996;-42
2023/01/08 01:17:55;;;;;;;;;;;;;;;4.05;72.32;100349.69;5090352;28;20006;-42
2023/01/08 01:20:22;;;;;;;;;;;;;;;4.02;72.80;100348.19;5089649;28;20592;-43
2023/01/08 01:22:47;;;;;;;;;;;;;;;3.99;72.98;100342.38;5090154;28;19935;-42
2023/01/08 01:25:13;;;;;;;;;;;;;;;3.84;73.29;100340.19;5090217;28;20376;-42
2023/01/08 01:27:38;;;;;;;;;;;;;;;3.67;73.99;100347.06;5090325;28;20422;-43
2023/01/08 01:30:04;;;;;;;;;;;;;;;3.69;74.02;100344.28;5090589;28;19923;-42
2023/01/08 01:32:29;;;;;;;;;;;;;;;3.75;74.18;100340.25;5090665;28;19912;-42
2023/01/08 01:34:54;;;;;;;;;;;;;;;3.81;73.69;100335.25;5090825;28;19916;-42
2023/01/08 01:37:19;;;;;;;;;;;;;;;3.80;74.63;100338.84;5090422;28;20340;-42
2023/01/08 01:39:45;;;;;;;;;;;;;;;3.89;73.31;100340.59;5088518;28;19912;-42
2023/01/08 01:42:38;;;;;;;;;;;;;;;3.88;72.84;100332.84;5089588;28;20420;-42
2023/01/08 01:44:57;;;;;;;;;;;;;;;4.00;72.90;100328.22;5089306;28;19971;-42
2023/01/08 01:47:22;;;;;;;;;;;;;;;3.80;73.50;100327.47;5089618;28;19943;-42
2023/01/08 01:49:51;;;;;;;;;;;;;;;3.66;74.04;100328.78;5089480;28;20606;-42
2023/01/08 01:52:16;;;;;;;;;;;;;;;3.94;73.02;100324.38;5089496;28;19934;-42
2023/01/08 01:54:41;;;;;;;;;;;;;;;4.09;72.06;100327.34;5089331;28;20372;-42
2023/01/08 01:57:07;;;;;;;;;;;;;;;4.12;72.02;100321.78;5090030;28;19922;-42
2023/01/08 01:59:32;;;;;;;;;;;;;;;4.02;72.69;100327.09;5089726;28;19926;-42
2023/01/08 02:01:59;;;;;;;;;;;;;;;3.98;72.52;100328.38;5089995;28;19951;-42
2023/01/08 02:04:24;;;;;;;;;;;;;;;3.77;72.60;100326.00;5089880;28;19924;-42
2023/01/08 02:07:01;;;;;;;;;;;;;;;3.75;73.33;100320.03;5090035;28;20396;-42
2023/01/08 02:09:40;;;;;;;;;;;;;;;3.99;71.43;100321.31;5089838;28;19912;-42
2023/01/08 02:12:18;;;;;;;;;;;;;;;3.43;74.10;100325.69;5090119;28;20016;-42
2023/01/08 02:15:07;;;;;;;;;;;;;;;3.26;74.99;100324.63;5090211;28;19935;-42
2023/01/08 02:17:51;;;;;;;;;;;;;;;3.29;75.47;100319.91;5089364;28;19920;-43
2023/01/08 02:20:23;;;;;;;;;;;;;;;3.63;73.39;100326.44;5089794;28;19974;-44
2023/01/08 02:23:01;;;;;;;;;;;;;;;3.58;73.77;100320.78;5089818;28;19992;-43
2023/01/08 02:25:36;;;;;;;;;;;;;;;3.56;73.77;100323.56;5089691;28;19916;-43
2023/01/08 02:28:04;;;;;;;;;;;;;;;3.53;73.50;100322.03;5088852;28;19920;-43
2023/01/08 02:30:30;;;;;;;;;;;;;;;3.61;73.57;100331.84;5088641;28;19938;-43
2023/01/08 02:32:55;;;;;;;;;;;;;;;3.33;74.00;100329.16;5089000;28;20383;-43
2023/01/08 02:35:20;;;;;;;;;;;;;;;3.25;74.75;100328.22;5089419;28;19912;-43
2023/01/08 02:37:46;;;;;;;;;;;;;;;3.16;74.19;100329.06;5089916;28;19912;-43
2023/01/08 02:40:14;;;;;;;;;;;;;;;2.97;76.22;100322.88;5088782;28;19916;-43
2023/01/08 02:42:42;;;;;;;;;;;;;;;3.06;75.92;100322.00;5089869;28;19912;-43
2023/01/08 02:45:19;;;;;;;;;;;;;;;2.79;75.99;100319.28;5090147;28;20374;-43
2023/01/08 02:47:48;;;;;;;;;;;;;;;2.79;76.86;100322.72;5090365;28;19913;-43
2023/01/08 02:50:23;;;;;;;;;;;;;;;2.95;75.49;100322.16;5090204;28;19970;-43
2023/01/08 02:53:09;;;;;;;;;;;;;;;3.23;75.15;100319.63;5090409;28;19932;-43
2023/01/08 02:55:36;;;;;;;;;;;;;;;3.38;74.11;100323.47;5089955;28;19979;-43
2023/01/08 02:58:03;;;;;;;;;;;;;;;3.28;74.29;100323.50;5090440;28;20342;-44
2023/01/08 03:00:28;;;;;;;;;;;;;;;3.38;73.98;100320.84;5089691;28;19920;-44
2023/01/08 03:03:03;;;;;;;;;;;;;;;3.14;74.37;100316.03;5090091;28;19916;-43
2023/01/08 03:05:29;;;;;;;;;;;;;;;3.22;74.39;100310.06;5088533;28;19927;-43
2023/01/08 03:07:54;;;;;;;;;;;;;;;3.23;74.18;100319.63;5090279;28;19912;-43
2023/01/08 03:10:21;;;;;;;;;;;;;;;3.07;74.96;100320.22;5090451;28;19970;-43
2023/01/08 03:13:07;;;;;;;;;;;;;;;2.92;75.88;100319.81;5089816;28;19919;-43
2023/01/08 03:15:38;;;;;;;;;;;;;;;3.07;75.76;100318.41;5089393;28;20392;-43
2023/01/08 03:18:06;;;;;;;;;;;;;;;3.11;75.98;100318.97;5089651;28;19920;-43
2023/01/08 03:20:32;;;;;;;;;;;;;;;3.08;74.94;100322.69;5089755;28;20115;-42
2023/01/08 03:22:59;;;;;;;;;;;;;;;3.33;74.30;100317.78;5090089;28;19912;-43
2023/01/08 03:25:27;;;;;;;;;;;;;;;3.18;74.30;100317.44;5089826;28;19916;-42
2023/01/08 03:27:54;;;;;;;;;;;;;;;3.24;74.49;100318.66;5090041;28;19996;-43
2023/01/08 03:30:20;;;;;;;;;;;;;;;3.24;74.38;100316.03;5093496;28;19935;-42
2023/01/08 03:32:47;;;;;;;;;;;;;;;2.87;75.13;100320.22;5093684;28;19922;-42
2023/01/08 03:35:16;;;;;;;;;;;;;;;3.07;75.45;100314.97;5093806;28;19912;-43
2023/01/08 03:37:44;;;;;;;;;;;;;;;2.92;75.61;100317.19;5092253;28;20002;-42
2023/01/08 03:40:10;;;;;;;;;;;;;;;3.03;75.60;100314.41;5092957;28;20010;-43
2023/01/08 03:42:35;;;;;;;;;;;;;;;3.12;75.15;100312.72;5093195;28;20540;-43
2023/01/08 03:45:01;;;;;;;;;;;;;;;3.04;74.59;100305.53;5093288;28;20328;-42
2023/01/08 03:47:28;;;;;;;;;;;;;;;3.08;75.15;100312.16;5093379;28;19912;-46
2023/01/08 03:49:54;;;;;;;;;;;;;;;3.00;75.09;100306.78;5093556;28;19928;-44
2023/01/08 03:52:27;;;;;;;;;;;;;;;2.90;75.25;100308.63;5093404;28;19912;-44
2023/01/08 03:54:52;;;;;;;;;;;;;;;2.83;75.94;100310.13;5093492;28;19919;-43
2023/01/08 03:57:18;;;;;;;;;;;;;;;2.70;76.20;100308.63;5093203;28;20014;-47
2023/01/08 03:59:43;;;;;;;;;;;;;;;2.87;75.99;100306.25;5092961;28;19912;-43
2023/01/08 04:02:09;;;;;;;;;;;;;;;2.91;74.24;100299.75;5092923;28;19916;-43
2023/01/08 04:04:34;;;;;;;;;;;;;;;2.60;74.72;100310.41;5093137;28;20419;-42
2023/01/08 04:06:59;;;;;;;;;;;;;;;2.47;77.26;100313.31;5093258;28;19912;-43
2023/01/08 04:09:24;;;;;;;;;;;;;;;2.68;76.59;100314.97;5093073;28;20488;-43
2023/01/08 04:11:50;;;;;;;;;;;;;;;2.65;75.99;100315.28;5092988;28;19946;-44
2023/01/08 04:14:15;;;;;;;;;;;;;;;2.72;76.00;100324.25;5092629;28;19916;-43
2023/01/08 04:16:41;;;;;;;;;;;;;;;2.54;76.63;100319.66;5092934;28;20315;-44
2023/01/08 04:19:06;;;;;;;;;;;;;;;2.58;76.63;100325.50;5092534;28;19931;-43
2023/01/08 04:21:31;;;;;;;;;;;;;;;2.68;76.17;100326.31;5092768;28;19918;-42
2023/01/08 04:23:56;;;;;;;;;;;;;;;2.43;76.01;100326.84;5092596;28;20007;-42
2023/01/08 04:26:22;;;;;;;;;;;;;;;2.48;76.70;100329.91;5092754;28;19935;-42
2023/01/08 04:28:47;;;;;;;;;;;;;;;2.42;77.34;100327.81;5092593;28;20140;-42
2023/01/08 04:31:12;;;;;;;;;;;;;;;2.63;76.00;100331.16;5092497;28;19912;-44
2023/01/08 04:33:38;;;;;;;;;;;;;;;2.44;75.95;100329.34;5092491;28;20006;-43
2023/01/08 04:36:04;;;;;;;;;;;;;;;2.22;78.51;100335.66;5092089;28;19911;-43
2023/01/08 04:38:29;;;;;;;;;;;;;;;2.30;77.90;100330.59;5092100;28;20302;-43
2023/01/08 04:40:58;;;;;;;;;;;;;;;2.39;77.31;100336.81;5091667;28;19920;-44
2023/01/08 04:43:23;;;;;;;;;;;;;;;2.24;76.01;100299.59;5092209;28;19912;-43
2023/01/08 04:45:49;;;;;;;;;;;;;;;2.55;75.63;100338.88;5092129;28;19969;-43
2023/01/08 04:48:14;;;;;;;;;;;;;;;2.76;75.07;100340.56;5092189;28;20276;-44
2023/01/08 04:50:39;;;;;;;;;;;;;;;2.96;75.02;100336.97;5092284;28;19918;-43
2023/01/08 04:53:05;;;;;;;;;;;;;;;2.83;74.91;100336.44;5092067;28;19915;-43
2023/01/08 04:55:30;;;;;;;;;;;;;;;2.62;74.68;100340.00;5091952;28;19912;-43
2023/01/08 04:57:55;;;;;;;;;;;;;;;2.31;76.13;100345.38;5091997;28;19995;-43
2023/01/08 05:00:21;;;;;;;;;;;;;;;2.36;76.87;100344.94;5091665;28;20353;-43
2023/01/08 05:02:46;;;;;;;;;;;;;;;2.30;76.33;100351.59;5091767;28;20353;-43
2023/01/08 05:05:11;;;;;;;;;;;;;;;2.22;77.34;100345.34;5091605;28;19955;-43
2023/01/08 05:07:36;;;;;;;;;;;;;;;2.36;76.20;100342.31;5091840;28;19919;-43
2023/01/08 05:10:02;;;;;;;;;;;;;;;2.28;77.19;100348.25;5091411;28;19912;-43
2023/01/08 05:12:27;;;;;;;;;;;;;;;2.38;76.22;100350.06;5091565;28;20006;-44
2023/01/08 05:14:52;;;;;;;;;;;;;;;2.48;76.27;100350.94;5091516;28;20011;-43
2023/01/08 05:17:18;;;;;;;;;;;;;;;2.52;76.26;100347.88;5091197;28;19919;-43
2023/01/08 05:19:43;;;;;;;;;;;;;;;2.28;76.30;100343.00;5091599;28;19923;-43
2023/01/08 05:22:08;;;;;;;;;;;;;;;2.19;77.01;100354.34;5091827;28;20010;-44
2023/01/08 05:24:34;;;;;;;;;;;;;;;2.05;78.18;100354.69;5091804;28;19916;-43
2023/01/08 05:26:59;;;;;;;;;;;;;;;2.32;76.80;100362.81;5091897;28;20388;-45
2023/01/08 05:29:24;;;;;;;;;;;;;;;2.33;77.19;100359.19;5091531;28;20418;-43
2023/01/08 05:31:49;;;;;;;;;;;;;;;2.23;77.40;100360.13;5091523;28;19919;-44
2023/01/08 05:34:15;;;;;;;;;;;;;;;2.25;77.25;100356.41;5091458;28;19939;-43
2023/01/08 05:36:40;;;;;;;;;;;;;;;2.38;77.35;100358.81;5091275;28;19912;-43
2023/01/08 05:39:05;;;;;;;;;;;;;;;2.61;75.61;100363.78;5091177;28;19922;-43
2023/01/08 05:41:30;;;;;;;;;;;;;;;2.57;75.97;100359.78;5091216;28;19918;-43
2023/01/08 05:43:56;;;;;;;;;;;;;;;2.41;77.15;100365.56;5091015;28;19916;-42
2023/01/08 05:46:21;;;;;;;;;;;;;;;2.31;77.34;100358.50;5090846;28;20004;-43
2023/01/08 05:48:46;;;;;;;;;;;;;;;2.27;77.69;100369.41;5091114;28;19999;-43
2023/01/08 05:51:12;;;;;;;;;;;;;;;2.17;76.99;100369.41;5090107;28;19932;-43
2023/01/08 05:53:37;;;;;;;;;;;;;;;2.14;77.70;100365.22;5090691;28;19961;-43
2023/01/08 05:56:04;;;;;;;;;;;;;;;2.33;77.02;100369.69;5090202;28;19948;-42
2023/01/08 05:58:30;;;;;;;;;;;;;;;2.26;76.16;100363.31;5090950;28;20370;-47
2023/01/08 06:01:06;;;;;;;;;;;;;;;2.23;76.75;100365.38;5090510;28;19920;-43
2023/01/08 06:03:31;;;;;;;;;;;;;;;2.31;75.73;100363.75;5088082;28;19912;-44
2023/01/08 06:05:57;;;;;;;;;;;;;;;2.20;76.53;100365.66;5090748;28;20304;-42
2023/01/08 06:08:22;;;;;;;;;;;;;;;2.30;76.44;100370.00;5091359;28;19948;-43
2023/01/08 06:10:48;;;;;;;;;;;;;;;2.43;76.14;100372.34;5090915;28;19981;-42
2023/01/08 06:13:13;;;;;;;;;;;;;;;2.56;75.69;100369.47;5090803;28;19919;-44
2023/01/08 06:15:39;;;;;;;;;;;;;;;2.83;75.90;100376.69;5091167;28;19934;-43
2023/01/08 06:18:04;;;;;;;;;;;;;;;3.17;74.12;100376.25;5090612;28;20014;-44
2023/01/08 06:20:29;;;;;;;;;;;;;;;3.32;73.86;100376.66;5090360;28;19916;-44
2023/01/08 06:22:55;;;;;;;;;;;;;;;3.49;72.65;100341.72;5090411;28;20011;-44
2023/01/08 06:25:20;;;;;;;;;;;;;;;3.83;70.86;100379.88;5090676;28;19920;-42
2023/01/08 06:27:52;;;;;;;;;;;;;;;3.95;72.28;100380.50;5090866;28;19948;-43
2023/01/08 06:30:17;;;;;;;;;;;;;;;3.89;70.70;100385.38;5090449;28;19912;-45
2023/01/08 06:32:43;;;;;;;;;;;;;;;3.78;71.24;100384.72;5090106;28;19923;-43
2023/01/08 06:35:08;;;;;;;;;;;;;;;4.19;69.27;100385.25;5090110;28;19924;-44
2023/01/08 06:37:33;;;;;;;;;;;;;;;4.42;68.25;100380.44;5087911;28;19951;-42
2023/01/08 06:39:58;;;;;;;;;;;;;;;5.48;66.90;100391.94;5089676;28;19941;-42
2023/01/08 06:42:24;;;;;;;;;;;;;;;5.03;66.24;100392.06;5090395;28;19912;-45
2023/01/08 06:44:49;;;;;;;;;;;;;;;4.95;66.63;100395.47;5090636;28;19927;-42
2023/01/08 06:47:14;;;;;;;;;;;;;;;5.44;65.95;100398.47;5090810;28;19912;-42
2023/01/08 06:49:40;;;;;;;;;;;;;;;5.39;64.70;100406.03;5090152;28;20364;-43
2023/01/08 06:52:05;;;;;;;;;;;;;;;5.24;65.82;100407.56;5090362;28;19916;-44
2023/01/08 06:54:30;;;;;;;;;;;;;;;5.20;65.99;100403.59;5089771;28;19916;-44
2023/01/08 06:56:55;;;;;;;;;;;;;;;6.39;63.60;100406.44;5089857;28;19923;-44
2023/01/08 06:59:21;;;;;;;;;;;;;;;6.26;61.44;100409.56;5089925;28;20383;-44
2023/01/08 07:01:46;;;;;;;;;;;;;;;6.45;61.31;100412.91;5089894;28;19923;-44
2023/01/08 07:04:11;;;;;;;;;;;;;;;6.50;60.72;100409.81;5093433;28;19916;-44
2023/01/08 07:06:37;;;;;;;;;;;;;;;6.65;60.02;100410.84;5094104;28;19912;-44
2023/01/08 07:09:02;;;;;;;;;;;;;;;7.02;58.97;100405.09;5094209;28;20395;-43
2023/01/08 07:11:27;;;;;;;;;;;;;;;7.11;58.39;100407.75;5093932;28;19912;-45
2023/01/08 07:13:54;;;;;;;;;;;;;;;6.89;59.57;100412.69;5094154;28;19919;-43
2023/01/08 07:16:19;;;;;;;;;;;;;;;7.44;65.88;100420.03;5093913;28;20264;-48
2023/01/08 07:18:44;;;;;;;;;;;;;;;8.22;60.70;100415.88;5093487;28;19924;-42
2023/01/08 07:21:10;;;;;;;;;;;;;;;8.84;53.71;100416.09;5093167;28;19912;-44
2023/01/08 07:23:37;;;;;;;;;;;;;;;8.82;53.09;100415.44;5093562;28;20371;-43
2023/01/08 07:26:03;;;;;;;;;;;;;;;7.83;57.02;100427.25;5093267;28;19918;-42
2023/01/08 07:28:28;;;;;;;;;;;;;;;8.06;56.08;100423.88;5093889;28;19912;-42
2023/01/08 07:30:53;;;;;;;;;;;;;;;8.29;55.05;100428.44;5093581;28;19965;-43
2023/01/08 07:33:19;;;;;;;;;;;;;;;8.59;53.86;100427.66;5087784;28;20279;-43
2023/01/08 07:35:50;;;;;;;;;;;;;;;8.89;54.15;100430.50;5090613;28;20573;-44
2023/01/08 07:38:15;;;;;;;;;;;;;;;8.59;54.18;100427.66;5093237;28;19916;-43
2023/01/08 07:40:41;;;;;;;;;;;;;;;8.27;55.74;100435.75;5093045;28;19916;-42
2023/01/08 07:43:06;;;;;;;;;;;;;;;8.32;55.35;100436.88;5093631;28;19919;-42
2023/01/08 07:45:31;;;;;;;;;;;;;;;8.47;54.79;100437.00;5093720;28;20288;-42
2023/01/08 07:47:57;;;;;;;;;;;;;;;8.82;53.67;100423.41;5094014;28;19912;-43
2023/01/08 07:50:22;;;;;;;;;;;;;;;9.32;51.72;100430.84;5093704;28;20328;-42
2023/01/08 07:52:48;;;;;;;;;;;;;;;9.51;51.39;100434.00;5093417;28;20002;-43
2023/01/08 07:55:13;;;;;;;;;;;;;;;9.44;50.96;100428.56;5091969;28;19912;-42
2023/01/08 07:57:38;;;;;;;;;;;;;;;9.57;51.31;100428.78;5093729;28;19934;-42
2023/01/08 08:00:04;;;;;;;;;;;;;;;9.32;51.55;100435.31;5092661;28;20377;-42
2023/01/08 08:02:29;;;;;;;;;;;;;;;9.56;51.38;100431.66;5092622;28;19976;-42
2023/01/08 08:04:54;;;;;;;;;;;;;;;9.38;52.00;100427.47;5092681;28;19923;-37
2023/01/08 08:07:20;;;;;;;;;;;;;;;9.36;52.20;100426.81;5093272;28;20311;-38
2023/01/08 08:09:45;;;;;;;;;;;;;;;9.39;51.45;100430.97;5092209;28;19919;-36
2023/01/08 08:12:10;;;;;;;;;;;;;;;9.35;51.72;100419.88;5093352;28;20283;-36
2023/01/08 08:14:36;;;;;;;;;;;;;;;9.22;51.62;100430.25;5092800;28;19959;-38
2023/01/08 08:17:01;;;;;;;;;;;;;;;9.53;51.32;100424.84;5092543;28;19996;-37
2023/01/08 08:19:26;;;;;;;;;;;;;;;10.12;50.47;100429.41;5091894;28;19924;-37
2023/01/08 08:21:52;;;;;;;;;;;;;;;10.16;49.91;100424.53;5091971;28;19923;-37
2023/01/08 08:24:17;;;;;;;;;;;;;;;9.93;50.23;100417.47;5092147;28;20454;-37
2023/01/08 08:26:42;;;;;;;;;;;;;;;9.88;49.64;100427.00;5091973;28;19924;-37
2023/01/08 08:29:07;;;;;;;;;;;;;;;10.09;49.29;100428.94;5092777;28;19958;-36
2023/01/08 08:31:33;;;;;;;;;;;;;;;10.18;56.82;100428.69;5092335;28;20484;-36
2023/01/08 08:33:58;;;;;;;;;;;;;;;10.63;50.61;100430.50;5092304;28;19912;-36
2023/01/08 08:36:27;;;;;;;;;;;;;;;12.15;50.97;100434.66;5090669;28;20012;-37
2023/01/08 08:38:52;;;;;;;;;;;;;;;12.03;46.66;100435.25;5091941;28;20287;-37
2023/01/08 08:41:18;;;;;;;;;;;;;;;11.92;44.74;100430.47;5091547;28;19923;-36
2023/01/08 08:43:43;;;;;;;;;;;;;;;11.82;45.61;100425.44;5091795;28;19981;-43
2023/01/08 08:46:08;;;;;;;;;;;;;;;11.74;45.55;100430.91;5092466;28;19919;-43
2023/01/08 08:48:33;;;;;;;;;;;;;;;12.38;44.42;100429.06;5091891;28;19916;-43
2023/01/08 08:50:59;;;;;;;;;;;;;;;12.13;44.34;100426.88;5091345;28;20434;-43
2023/01/08 08:53:24;;;;;;;;;;;;;;;11.78;45.29;100434.00;5091954;28;19912;-47
2023/01/08 08:55:49;;;;;;;;;;;;;;;12.01;46.43;100425.78;5091527;28;20453;-48
2023/01/08 08:58:15;;;;;;;;;;;;;;;13.07;44.78;100422.69;5091138;28;20295;-48
2023/01/08 09:00:41;;;;;;;;;;;;;;;13.52;42.89;100419.44;5091295;28;19918;-49
2023/01/08 09:03:06;;;;;;;;;;;;;;;14.16;40.56;100421.41;5090191;28;19937;-43
2023/01/08 09:05:35;;;;;;;;;;;;;;;14.21;39.24;100412.75;5090234;28;19920;-42
2023/01/08 09:08:00;;;;;;;;;;;;;;;13.22;41.63;100414.50;5090900;28;20006;-42
2023/01/08 09:10:25;;;;;;;;;;;;;;;13.35;41.09;100411.84;5090407;28;19998;-43
2023/01/08 09:12:51;;;;;;;;;;;;;;;14.00;39.98;100414.66;5098700;28;19912;-36
2023/01/08 09:15:16;;;;;;;;;;;;;;;13.77;41.33;100408.97;5093337;28;19920;-44
2023/01/08 09:17:42;;;;;;;;;;;;;;;13.56;40.34;100407.34;5090840;28;19931;-43
2023/01/08 09:20:07;;;;;;;;;;;;;;;14.46;40.28;100402.97;5089836;28;20483;-44
2023/01/08 09:22:33;;;;;;;;;;;;;;;14.20;39.51;100400.41;5090638;28;20432;-44
2023/01/08 09:24:58;;;;;;;;;;;;;;;13.68;40.05;100403.00;5090161;28;20439;-43
2023/01/08 09:27:23;;;;;;;;;;;;;;;13.03;40.50;100400.09;5088928;28;20076;-42
2023/01/08 09:29:48;;;;;;;;;;;;;;;13.35;41.17;100390.47;5089550;28;19995;-43
2023/01/08 09:32:14;;;;;;;;;;;;;;;12.80;42.87;100387.91;5089971;28;19916;-37
2023/01/08 09:34:39;;;;;;;;;;;;;;;12.76;43.20;100384.00;5090015;28;19912;-37
2023/01/08 09:37:04;;;;;;;;;;;;;;;13.17;41.99;100374.19;5090290;28;19931;-37
2023/01/08 09:39:30;;;;;;;;;;;;;;;14.28;40.41;100378.75;5089803;28;19912;-38
2023/01/08 09:41:57;;;;;;;;;;;;;;;13.91;40.08;100370.44;5089561;28;20621;-38
2023/01/08 09:44:25;;;;;;;;;;;;;;;13.41;41.19;100368.25;5089460;28;20433;-36
2023/01/08 09:46:53;;;;;;;;;;;;;;;13.61;40.93;100362.06;5089916;28;19912;-37
2023/01/08 09:49:21;;;;;;;;;;;;;;;13.91;39.56;100357.06;5090191;28;19920;-37
2023/01/08 09:51:46;;;;;;;;;;;;;;;13.10;41.59;100356.31;5089654;28;19920;-36
2023/01/08 09:54:14;;;;;;;;;;;;;;;13.19;41.28;100359.59;5090495;28;19923;-40
2023/01/08 09:56:39;;;;;;;;;;;;;;;13.50;41.24;100350.16;5090449;28;19912;-36
2023/01/08 09:59:05;;;;;;;;;;;;;;;13.14;41.81;100348.72;5090625;28;19919;-37
2023/01/08 10:01:34;;;;;;;;;;;;;;;13.07;41.45;100339.88;5090151;28;19912;-37
2023/01/08 10:04:03;;;;;;;;;;;;;;;12.57;42.35;100347.41;5089860;28;19916;-37
2023/01/08 10:06:30;;;;;;;;;;;;;;;13.41;41.10;100330.00;5090275;28;19916;-37
2023/01/08 10:08:56;;;;;;;;;;;;;;;13.26;41.24;100331.00;5090623;28;19912;-36
2023/01/08 10:11:23;;;;;;;;;;;;;;;12.65;41.86;100336.53;5089907;28;19918;-36
2023/01/08 10:13:52;;;;;;;;;;;;;;;13.28;41.62;100330.81;5089744;28;19920;-37
2023/01/08 10:16:38;;;;;;;;;;;;;;;13.76;40.31;100327.06;5089522;28;19912;-42
2023/01/08 10:19:03;;;;;;;;;;;;;;;13.12;41.24;100324.03;5089225;28;19977;-44
2023/01/08 10:21:36;;;;;;;;;;;;;;;12.65;41.55;100315.97;5089468;28;19920;-43
2023/01/08 10:24:02;;;;;;;;;;;;;;;13.39;41.13;100319.53;5089084;28;20384;-42
2023/01/08 10:26:29;;;;;;;;;;;;;;;14.01;39.52;100313.78;5089884;28;19912;-43
2023/01/08 10:29:14;;;;;;;;;;;;;;;14.01;40.67;100306.59;5089642;28;19912;-43
2023/01/08 10:31:47;;;;;;;;;;;;;;;12.74;41.45;100297.94;5089738;28;20007;-43
2023/01/08 10:34:19;;;;;;;;;;;;;;;13.32;41.16;100299.19;5089035;28;20329;-43
2023/01/08 10:36:45;;;;;;;;;;;;;;;13.78;40.23;100292.88;5103754;28;20002;-44
2023/01/08 10:39:27;;;;;;;;;;;;;;;13.57;40.83;100288.63;5097915;28;20487;-44
2023/01/08 10:41:55;;;;;;;;;;;;;;;13.81;40.05;100281.78;5075869;28;19966;-44
2023/01/08 10:44:22;;;;;;;;;;;;;;;14.50;38.94;100284.72;5089107;28;20292;-43
2023/01/08 10:46:49;;;;;;;;;;;;;;;13.68;39.83;100277.28;5085008;28;19999;-43
2023/01/08 10:49:22;;;;;;;;;;;;;;;13.28;40.25;100272.81;5088415;28;19970;-43
2023/01/08 10:51:51;;;;;;;;;;;;;;;12.60;42.51;100274.91;5088103;28;20068;-43
2023/01/08 10:54:29;;;;;;;;;;;;;;;14.15;39.57;100267.22;5088343;28;19923;-43
2023/01/08 10:56:54;;;;;;;;;;;;;;;13.72;39.82;100267.00;5086926;28;19923;-43
2023/01/08 10:59:21;;;;;;;;;;;;;;;13.32;41.14;100261.75;5086834;28;19920;-43
2023/01/08 11:01:47;;;;;;;;;;;;;;;13.32;40.56;100257.22;5086677;28;19922;-43
2023/01/08 11:04:33;;;;;;;;;;;;;;;14.05;40.13;100256.13;5087093;28;19916;-43
2023/01/08 11:07:03;;;;;;;;;;;;;;;13.04;41.63;100252.94;5089440;28;19912;-43
2023/01/08 11:09:31;;;;;;;;;;;;;;;12.98;42.20;100252.94;5088666;28;19950;-44
2023/01/08 11:11:57;;;;;;;;;;;;;;;13.05;42.28;100249.22;5088429;28;20007;-42
2023/01/08 11:14:22;;;;;;;;;;;;;;;13.82;39.92;100241.44;5087732;28;19998;-42
2023/01/08 11:16:48;;;;;;;;;;;;;;;13.56;40.82;100237.03;5086402;28;19919;-42
2023/01/08 11:19:18;;;;;;;;;;;;;;;13.30;42.53;100243.25;5086729;28;20008;-42
2023/01/08 11:21:53;;;;;;;;;;;;;;;13.17;41.87;100244.06;5087630;28;19916;-42
2023/01/08 11:24:21;;;;;;;;;;;;;;;13.69;40.37;100228.13;5087773;28;19984;-41
2023/01/08 11:26:51;;;;;;;;;;;;;;;13.41;41.02;100207.03;5088183;28;19916;-42
2023/01/08 11:29:40;;;;;;;;;;;;;;;13.01;41.60;100237.31;5087866;28;19916;-44
2023/01/08 11:32:31;;;;;;;;;;;;;;;13.55;41.54;100224.66;5068265;28;19919;-42
2023/01/08 11:35:02;;;;;;;;;;;;;;;13.25;41.23;100219.81;5085830;28;19922;-44
2023/01/08 11:37:34;;;;;;;;;;;;;;;12.88;41.78;100224.78;5067683;28;20287;-44
2023/01/08 11:40:00;;;;;;;;;;;;;;;13.26;41.09;100220.63;5067922;28;19916;-44
2023/01/08 11:42:34;;;;;;;;;;;;;;;14.30;39.94;100215.22;5072650;28;20267;-45
2023/01/08 11:45:05;;;;;;;;;;;;;;;14.51;38.54;100211.38;5087983;28;19916;-42
2023/01/08 11:47:40;;;;;;;;;;;;;;;14.07;40.53;100217.44;5088269;28;19912;-43
2023/01/08 11:50:23;;;;;;;;;;;;;;;13.96;39.93;100215.44;5088712;28;20388;-43
2023/01/08 11:52:57;;;;;;;;;;;;;;;15.10;38.25;100214.59;5091437;28;19919;-43
2023/01/08 11:55:29;;;;;;;;;;;;;;;14.48;38.78;100208.09;5091122;28;19912;-44
2023/01/08 11:58:05;;;;;;;;;;;;;;;14.21;40.14;100209.34;5091255;28;19923;-44
2023/01/08 12:00:31;;;;;;;;;;;;;;;14.66;39.32;100204.69;5091045;28;19912;-43
2023/01/08 12:03:10;;;;;;;;;;;;;;;14.70;38.52;100198.88;5091150;28;20307;-44
2023/01/08 12:05:38;;;;;;;;;;;;;;;13.84;39.93;100193.06;5090680;28;19922;-43
2023/01/08 12:08:10;;;;;;;;;;;;;;;14.19;39.57;100193.47;5091277;28;20010;-43
2023/01/08 12:10:54;;;;;;;;;;;;;;;14.75;38.68;100191.03;5090727;28;19977;-44
2023/01/08 12:13:19;;;;;;;;;;;;;;;14.41;39.44;100193.97;5090980;28;19919;-44
2023/01/08 12:15:59;;;;;;;;;;;;;;;13.74;40.06;100182.00;5091461;28;19912;-43
2023/01/08 12:18:25;;;;;;;;;;;;;;;14.33;39.82;100193.38;5091579;28;19920;-44
2023/01/08 12:21:08;;;;;;;;;;;;;;;13.74;40.60;100184.69;5091613;28;19923;-44
2023/01/08 12:23:45;;;;;;;;;;;;;;;13.86;39.45;100189.16;5091389;28;19923;-43
2023/01/08 12:26:17;;;;;;;;;;;;;;;14.01;40.16;100188.03;5091416;28;19930;-42
2023/01/08 12:28:42;;;;;;;;;;;;;;;13.96;39.14;100182.53;5091816;28;19915;-45
2023/01/08 12:31:28;;;;;;;;;;;;;;;13.82;38.98;100185.28;5091506;28;19912;-44
2023/01/08 12:33:57;;;;;;;;;;;;;;;13.47;40.42;100187.47;5091334;28;19977;-43
2023/01/08 12:36:25;;;;;;;;;;;;;;;14.20;39.12;100186.25;5102674;28;20371;-43
2023/01/08 12:39:03;;;;;;;;;;;;;;;14.03;38.38;100181.44;5111768;28;20228;-43
2023/01/08 12:41:30;;;;;;;;;;;;;;;13.78;39.28;100185.91;5111640;28;19954;-45
2023/01/08 12:43:58;;;;;;;;;;;;;;;13.59;40.56;100182.28;5092637;28;19923;-43